sensor_id;sensor_type;location;lat;lon;timestamp;temperature;humidity
69009;SHT31;56065;52.472;13.380;2022-09-27T00:00:30;14.51;68.53
69009;SHT31;56065;52.472;13.380;2022-09-27T00:02:55;14.51;68.63
69009;SHT31;56065;52.472;13.380;2022-09-27T00:05:21;14.54;68.58
69009;SHT31;56065;52.472;13.380;2022-09-27T00:07:47;14.60;68.59
69009;SHT31;56065;52.472;13.380;2022-09-27T00:10:13;14.59;68.47
69009;SHT31;56065;52.472;13.380;2022-09-27T00:12:38;14.51;68.94
69009;SHT31;56065;52.472;13.380;2022-09-27T00:15:05;14.53;68.87
69009;SHT31;56065;52.472;13.380;2022-09-27T00:17:32;14.53;68.84
69009;SHT31;56065;52.472;13.380;2022-09-27T00:19:58;14.51;68.94
69009;SHT31;56065;52.472;13.380;2022-09-27T00:22:24;14.44;69.02
69009;SHT31;56065;52.472;13.380;2022-09-27T00:24:50;14.47;68.92
69009;SHT31;56065;52.472;13.380;2022-09-27T00:27:17;14.41;69.07
69009;SHT31;56065;52.472;13.380;2022-09-27T00:29:43;14.37;69.24
69009;SHT31;56065;52.472;13.380;2022-09-27T00:32:09;14.34;69.49
69009;SHT31;56065;52.472;13.380;2022-09-27T00:34:34;14.32;69.40
69009;SHT31;56065;52.472;13.380;2022-09-27T00:37:00;14.29;69.56
69009;SHT31;56065;52.472;13.380;2022-09-27T00:39:25;14.33;69.47
69009;SHT31;56065;52.472;13.380;2022-09-27T00:41:50;14.33;69.44
69009;SHT31;56065;52.472;13.380;2022-09-27T00:47:28;14.24;69.58
69009;SHT31;56065;52.472;13.380;2022-09-27T00:50:03;14.30;69.38
69009;SHT31;56065;52.472;13.380;2022-09-27T00:52:40;14.16;69.67
69009;SHT31;56065;52.472;13.380;2022-09-27T00:55:13;14.26;69.29
69009;SHT31;56065;52.472;13.380;2022-09-27T00:57:41;14.22;69.54
69009;SHT31;56065;52.472;13.380;2022-09-27T01:00:10;14.22;69.25
69009;SHT31;56065;52.472;13.380;2022-09-27T01:02:37;14.23;69.29
69009;SHT31;56065;52.472;13.380;2022-09-27T01:05:05;14.20;69.33
69009;SHT31;56065;52.472;13.380;2022-09-27T01:07:31;14.24;69.10
69009;SHT31;56065;52.472;13.380;2022-09-27T01:09:57;14.24;69.07
69009;SHT31;56065;52.472;13.380;2022-09-27T01:12:32;14.19;69.12
69009;SHT31;56065;52.472;13.380;2022-09-27T01:17:52;14.12;69.38
69009;SHT31;56065;52.472;13.380;2022-09-27T01:20:35;14.17;69.23
69009;SHT31;56065;52.472;13.380;2022-09-27T01:42:10;14.22;69.40
69009;SHT31;56065;52.472;13.380;2022-09-27T01:44:58;14.22;69.20
69009;SHT31;56065;52.472;13.380;2022-09-27T01:47:44;14.27;68.92
69009;SHT31;56065;52.472;13.380;2022-09-27T01:50:14;14.33;68.72
69009;SHT31;56065;52.472;13.380;2022-09-27T01:52:49;14.30;68.97
69009;SHT31;56065;52.472;13.380;2022-09-27T01:55:16;14.37;68.56
69009;SHT31;56065;52.472;13.380;2022-09-27T01:57:56;14.20;68.97
69009;SHT31;56065;52.472;13.380;2022-09-27T02:00:22;14.34;68.72
69009;SHT31;56065;52.472;13.380;2022-09-27T02:02:56;14.38;68.62
69009;SHT31;56065;52.472;13.380;2022-09-27T02:05:28;14.46;68.55
69009;SHT31;56065;52.472;13.380;2022-09-27T02:07:58;14.41;68.36
69009;SHT31;56065;52.472;13.380;2022-09-27T02:10:45;14.50;68.05
69009;SHT31;56065;52.472;13.380;2022-09-27T02:13:18;14.50;67.85
69009;SHT31;56065;52.472;13.380;2022-09-27T02:16:49;14.51;68.17
69009;SHT31;56065;52.472;13.380;2022-09-27T02:18:55;14.50;67.77
69009;SHT31;56065;52.472;13.380;2022-09-27T02:21:31;14.46;68.40
69009;SHT31;56065;52.472;13.380;2022-09-27T02:24:01;14.50;67.77
69009;SHT31;56065;52.472;13.380;2022-09-27T02:26:39;14.53;68.08
69009;SHT31;56065;52.472;13.380;2022-09-27T02:29:09;14.53;67.87
69009;SHT31;56065;52.472;13.380;2022-09-27T02:31:35;14.63;67.66
69009;SHT31;56065;52.472;13.380;2022-09-27T02:34:13;14.63;67.71
69009;SHT31;56065;52.472;13.380;2022-09-27T02:36:40;14.73;67.42
69009;SHT31;56065;52.472;13.380;2022-09-27T02:39:06;14.71;67.71
69009;SHT31;56065;52.472;13.380;2022-09-27T02:41:31;14.65;67.64
69009;SHT31;56065;52.472;13.380;2022-09-27T02:44:03;14.71;67.56
69009;SHT31;56065;52.472;13.380;2022-09-27T02:57:19;14.65;67.46
69009;SHT31;56065;52.472;13.380;2022-09-27T03:02:40;14.74;67.91
69009;SHT31;56065;52.472;13.380;2022-09-27T03:05:16;14.71;67.52
69009;SHT31;56065;52.472;13.380;2022-09-27T03:07:45;14.68;67.53
69009;SHT31;56065;52.472;13.380;2022-09-27T03:10:19;14.74;67.89
69009;SHT31;56065;52.472;13.380;2022-09-27T03:12:45;14.68;67.59
69009;SHT31;56065;52.472;13.380;2022-09-27T03:15:10;14.68;67.33
69009;SHT31;56065;52.472;13.380;2022-09-27T03:17:36;14.70;67.49
69009;SHT31;56065;52.472;13.380;2022-09-27T03:20:02;14.74;67.43
69009;SHT31;56065;52.472;13.380;2022-09-27T03:22:28;14.71;67.88
69009;SHT31;56065;52.472;13.380;2022-09-27T03:24:53;14.67;67.54
69009;SHT31;56065;52.472;13.380;2022-09-27T03:27:18;14.74;67.78
69009;SHT31;56065;52.472;13.380;2022-09-27T03:29:44;14.73;67.74
69009;SHT31;56065;52.472;13.380;2022-09-27T03:32:09;14.68;67.66
69009;SHT31;56065;52.472;13.380;2022-09-27T03:34:35;14.60;67.82
69009;SHT31;56065;52.472;13.380;2022-09-27T03:37:00;14.60;67.97
69009;SHT31;56065;52.472;13.380;2022-09-27T03:39:26;14.57;68.26
69009;SHT31;56065;52.472;13.380;2022-09-27T03:41:51;14.63;68.40
69009;SHT31;56065;52.472;13.380;2022-09-27T03:44:17;14.59;69.19
69009;SHT31;56065;52.472;13.380;2022-09-27T03:46:42;14.50;68.89
69009;SHT31;56065;52.472;13.380;2022-09-27T03:49:08;14.44;69.23
69009;SHT31;56065;52.472;13.380;2022-09-27T03:51:33;14.47;69.47
69009;SHT31;56065;52.472;13.380;2022-09-27T03:53:58;14.56;69.34
69009;SHT31;56065;52.472;13.380;2022-09-27T03:56:24;14.46;69.91
69009;SHT31;56065;52.472;13.380;2022-09-27T03:58:49;14.48;69.84
69009;SHT31;56065;52.472;13.380;2022-09-27T04:01:15;14.53;70.39
69009;SHT31;56065;52.472;13.380;2022-09-27T04:03:40;14.43;70.40
69009;SHT31;56065;52.472;13.380;2022-09-27T04:06:06;14.46;70.58
69009;SHT31;56065;52.472;13.380;2022-09-27T04:08:31;14.41;70.55
69009;SHT31;56065;52.472;13.380;2022-09-27T04:10:57;14.43;70.63
69009;SHT31;56065;52.472;13.380;2022-09-27T04:13:22;14.47;70.80
69009;SHT31;56065;52.472;13.380;2022-09-27T04:15:48;14.40;70.82
69009;SHT31;56065;52.472;13.380;2022-09-27T04:18:13;14.41;71.44
69009;SHT31;56065;52.472;13.380;2022-09-27T04:20:39;14.13;71.98
69009;SHT31;56065;52.472;13.380;2022-09-27T04:23:04;14.08;72.33
69009;SHT31;56065;52.472;13.380;2022-09-27T04:25:30;14.10;72.47
69009;SHT31;56065;52.472;13.380;2022-09-27T04:27:57;14.19;72.41
69009;SHT31;56065;52.472;13.380;2022-09-27T04:30:23;14.16;72.68
69009;SHT31;56065;52.472;13.380;2022-09-27T04:32:50;14.13;73.07
69009;SHT31;56065;52.472;13.380;2022-09-27T04:35:16;14.15;72.99
69009;SHT31;56065;52.472;13.380;2022-09-27T04:37:59;13.99;74.01
69009;SHT31;56065;52.472;13.380;2022-09-27T04:40:25;13.96;74.49
69009;SHT31;56065;52.472;13.380;2022-09-27T04:42:51;13.95;75.14
69009;SHT31;56065;52.472;13.380;2022-09-27T04:45:17;13.90;74.62
69009;SHT31;56065;52.472;13.380;2022-09-27T04:47:47;13.96;75.02
69009;SHT31;56065;52.472;13.380;2022-09-27T04:50:13;13.83;75.43
69009;SHT31;56065;52.472;13.380;2022-09-27T04:52:39;13.89;75.27
69009;SHT31;56065;52.472;13.380;2022-09-27T04:55:08;13.83;75.44
69009;SHT31;56065;52.472;13.380;2022-09-27T04:57:34;13.78;75.48
69009;SHT31;56065;52.472;13.380;2022-09-27T05:00:00;13.83;75.78
69009;SHT31;56065;52.472;13.380;2022-09-27T05:02:26;13.79;75.65
69009;SHT31;56065;52.472;13.380;2022-09-27T05:04:52;13.81;75.89
69009;SHT31;56065;52.472;13.380;2022-09-27T05:07:20;13.81;75.86
69009;SHT31;56065;52.472;13.380;2022-09-27T05:09:46;13.76;76.08
69009;SHT31;56065;52.472;13.380;2022-09-27T05:12:11;13.78;76.73
69009;SHT31;56065;52.472;13.380;2022-09-27T05:14:38;13.72;76.82
69009;SHT31;56065;52.472;13.380;2022-09-27T05:17:03;13.65;76.88
69009;SHT31;56065;52.472;13.380;2022-09-27T05:19:30;13.69;76.71
69009;SHT31;56065;52.472;13.380;2022-09-27T05:21:55;13.66;77.16
69009;SHT31;56065;52.472;13.380;2022-09-27T05:24:21;13.72;77.07
69009;SHT31;56065;52.472;13.380;2022-09-27T05:26:46;13.74;77.36
69009;SHT31;56065;52.472;13.380;2022-09-27T05:29:11;13.66;77.63
69009;SHT31;56065;52.472;13.380;2022-09-27T05:31:37;13.59;78.95
69009;SHT31;56065;52.472;13.380;2022-09-27T05:34:02;13.55;77.95
69009;SHT31;56065;52.472;13.380;2022-09-27T05:36:28;13.41;78.79
69009;SHT31;56065;52.472;13.380;2022-09-27T05:38:54;13.45;78.69
69009;SHT31;56065;52.472;13.380;2022-09-27T05:41:20;13.55;78.73
69009;SHT31;56065;52.472;13.380;2022-09-27T05:43:45;13.57;79.30
69009;SHT31;56065;52.472;13.380;2022-09-27T05:46:11;13.59;78.81
69009;SHT31;56065;52.472;13.380;2022-09-27T05:48:36;13.66;78.23
69009;SHT31;56065;52.472;13.380;2022-09-27T05:51:02;13.66;78.42
69009;SHT31;56065;52.472;13.380;2022-09-27T05:53:28;13.68;78.94
69009;SHT31;56065;52.472;13.380;2022-09-27T05:55:53;13.65;78.82
69009;SHT31;56065;52.472;13.380;2022-09-27T05:58:18;13.50;78.70
69009;SHT31;56065;52.472;13.380;2022-09-27T06:00:44;13.57;79.16
69009;SHT31;56065;52.472;13.380;2022-09-27T06:03:11;13.62;78.85
69009;SHT31;56065;52.472;13.380;2022-09-27T06:05:38;13.62;78.90
69009;SHT31;56065;52.472;13.380;2022-09-27T06:08:09;13.71;78.33
69009;SHT31;56065;52.472;13.380;2022-09-27T06:10:35;13.65;79.49
69009;SHT31;56065;52.472;13.380;2022-09-27T06:13:06;13.71;79.44
69009;SHT31;56065;52.472;13.380;2022-09-27T06:15:33;13.69;79.35
69009;SHT31;56065;52.472;13.380;2022-09-27T06:18:04;13.81;79.17
69009;SHT31;56065;52.472;13.380;2022-09-27T06:20:31;13.82;78.84
69009;SHT31;56065;52.472;13.380;2022-09-27T06:23:07;13.76;78.94
69009;SHT31;56065;52.472;13.380;2022-09-27T06:25:33;13.72;79.39
69009;SHT31;56065;52.472;13.380;2022-09-27T06:27:59;13.81;79.61
69009;SHT31;56065;52.472;13.380;2022-09-27T06:30:25;13.90;79.02
69009;SHT31;56065;52.472;13.380;2022-09-27T06:32:58;13.89;79.50
69009;SHT31;56065;52.472;13.380;2022-09-27T06:35:25;13.90;78.92
69009;SHT31;56065;52.472;13.380;2022-09-27T06:37:51;13.83;79.08
69009;SHT31;56065;52.472;13.380;2022-09-27T06:40:17;13.87;79.02
69009;SHT31;56065;52.472;13.380;2022-09-27T06:42:42;13.68;79.41
69009;SHT31;56065;52.472;13.380;2022-09-27T06:45:08;13.92;79.32
69009;SHT31;56065;52.472;13.380;2022-09-27T06:47:37;13.87;79.10
69009;SHT31;56065;52.472;13.380;2022-09-27T06:50:03;13.78;79.39
69009;SHT31;56065;52.472;13.380;2022-09-27T06:52:30;13.75;79.37
69009;SHT31;56065;52.472;13.380;2022-09-27T06:54:56;13.86;79.41
69009;SHT31;56065;52.472;13.380;2022-09-27T06:57:21;13.89;79.70
69009;SHT31;56065;52.472;13.380;2022-09-27T07:00:05;13.83;79.56
69009;SHT31;56065;52.472;13.380;2022-09-27T07:02:49;13.98;79.44
69009;SHT31;56065;52.472;13.380;2022-09-27T07:05:16;14.02;79.77
69009;SHT31;56065;52.472;13.380;2022-09-27T07:07:42;13.96;79.36
69009;SHT31;56065;52.472;13.380;2022-09-27T07:10:12;14.12;79.11
69009;SHT31;56065;52.472;13.380;2022-09-27T07:12:37;14.26;78.94
69009;SHT31;56065;52.472;13.380;2022-09-27T07:15:04;14.20;78.92
69009;SHT31;56065;52.472;13.380;2022-09-27T07:17:31;14.03;79.67
69009;SHT31;56065;52.472;13.380;2022-09-27T07:19:56;14.22;79.14
69009;SHT31;56065;52.472;13.380;2022-09-27T07:22:22;14.36;79.04
69009;SHT31;56065;52.472;13.380;2022-09-27T07:24:47;14.41;78.69
69009;SHT31;56065;52.472;13.380;2022-09-27T07:27:13;14.38;78.97
69009;SHT31;56065;52.472;13.380;2022-09-27T07:29:39;14.29;78.98
69009;SHT31;56065;52.472;13.380;2022-09-27T07:32:05;14.24;79.18
69009;SHT31;56065;52.472;13.380;2022-09-27T07:34:32;14.23;79.82
69009;SHT31;56065;52.472;13.380;2022-09-27T07:36:58;14.24;79.55
69009;SHT31;56065;52.472;13.380;2022-09-27T07:39:24;14.20;80.01
69009;SHT31;56065;52.472;13.380;2022-09-27T07:41:50;14.27;79.99
69009;SHT31;56065;52.472;13.380;2022-09-27T07:44:16;14.34;79.86
69009;SHT31;56065;52.472;13.380;2022-09-27T07:46:42;14.19;79.77
69009;SHT31;56065;52.472;13.380;2022-09-27T07:49:07;14.38;79.62
69009;SHT31;56065;52.472;13.380;2022-09-27T07:51:32;14.50;79.28
69009;SHT31;56065;52.472;13.380;2022-09-27T07:53:58;14.61;79.22
69009;SHT31;56065;52.472;13.380;2022-09-27T07:56:25;14.71;79.03
69009;SHT31;56065;52.472;13.380;2022-09-27T07:58:51;14.68;79.18
69009;SHT31;56065;52.472;13.380;2022-09-27T08:01:16;14.60;79.08
69009;SHT31;56065;52.472;13.380;2022-09-27T08:03:42;14.74;79.02
69009;SHT31;56065;52.472;13.380;2022-09-27T08:06:09;14.65;79.11
69009;SHT31;56065;52.472;13.380;2022-09-27T08:08:34;14.74;78.96
69009;SHT31;56065;52.472;13.380;2022-09-27T08:11:00;14.78;78.93
69009;SHT31;56065;52.472;13.380;2022-09-27T08:13:25;14.74;78.55
69009;SHT31;56065;52.472;13.380;2022-09-27T08:15:51;14.70;78.95
69009;SHT31;56065;52.472;13.380;2022-09-27T08:18:17;14.64;78.61
69009;SHT31;56065;52.472;13.380;2022-09-27T08:20:42;14.57;78.35
69009;SHT31;56065;52.472;13.380;2022-09-27T08:23:08;14.50;78.67
69009;SHT31;56065;52.472;13.380;2022-09-27T08:25:34;14.57;78.68
69009;SHT31;56065;52.472;13.380;2022-09-27T08:28:01;14.43;78.82
69009;SHT31;56065;52.472;13.380;2022-09-27T08:30:28;14.37;78.72
69009;SHT31;56065;52.472;13.380;2022-09-27T08:32:57;14.46;79.05
69009;SHT31;56065;52.472;13.380;2022-09-27T08:35:23;14.37;79.31
69009;SHT31;56065;52.472;13.380;2022-09-27T08:37:56;14.50;79.21
69009;SHT31;56065;52.472;13.380;2022-09-27T08:43:33;14.75;78.81
69009;SHT31;56065;52.472;13.380;2022-09-27T08:46:14;14.84;78.64
69009;SHT31;56065;52.472;13.380;2022-09-27T08:48:43;15.01;78.23
69009;SHT31;56065;52.472;13.380;2022-09-27T08:51:12;15.01;77.90
69009;SHT31;56065;52.472;13.380;2022-09-27T08:53:40;15.04;77.76
69009;SHT31;56065;52.472;13.380;2022-09-27T08:56:08;15.04;77.79
69009;SHT31;56065;52.472;13.380;2022-09-27T09:01:11;14.84;78.36
69009;SHT31;56065;52.472;13.380;2022-09-27T09:03:43;14.95;78.08
69009;SHT31;56065;52.472;13.380;2022-09-27T09:06:22;14.94;77.98
69009;SHT31;56065;52.472;13.380;2022-09-27T09:26:19;15.26;78.07
69009;SHT31;56065;52.472;13.380;2022-09-27T09:37:01;15.32;77.54
69009;SHT31;56065;52.472;13.380;2022-09-27T09:39:42;15.34;77.35
69009;SHT31;56065;52.472;13.380;2022-09-27T09:42:17;15.46;77.06
69009;SHT31;56065;52.472;13.380;2022-09-27T09:44:54;15.45;76.90
69009;SHT31;56065;52.472;13.380;2022-09-27T09:47:48;15.40;76.99
69009;SHT31;56065;52.472;13.380;2022-09-27T09:50:25;15.35;77.24
69009;SHT31;56065;52.472;13.380;2022-09-27T09:52:56;15.31;76.88
69009;SHT31;56065;52.472;13.380;2022-09-27T09:55:27;15.22;77.53
69009;SHT31;56065;52.472;13.380;2022-09-27T10:00:22;15.69;76.81
69009;SHT31;56065;52.472;13.380;2022-09-27T10:02:54;15.80;76.49
69009;SHT31;56065;52.472;13.380;2022-09-27T10:05:26;15.77;76.59
69009;SHT31;56065;52.472;13.380;2022-09-27T10:07:55;15.84;76.57
69009;SHT31;56065;52.472;13.380;2022-09-27T10:10:22;16.20;75.67
69009;SHT31;56065;52.472;13.380;2022-09-27T10:12:48;16.77;75.04
69009;SHT31;56065;52.472;13.380;2022-09-27T10:15:20;17.30;73.35
69009;SHT31;56065;52.472;13.380;2022-09-27T10:17:49;17.68;72.74
69009;SHT31;56065;52.472;13.380;2022-09-27T10:25:57;17.41;71.02
69009;SHT31;56065;52.472;13.380;2022-09-27T10:28:52;17.12;71.37
69009;SHT31;56065;52.472;13.380;2022-09-27T10:31:19;17.22;72.06
69009;SHT31;56065;52.472;13.380;2022-09-27T10:36:27;17.43;70.98
69009;SHT31;56065;52.472;13.380;2022-09-27T10:39:00;17.50;71.43
69009;SHT31;56065;52.472;13.380;2022-09-27T10:43:56;17.43;71.32
69009;SHT31;56065;52.472;13.380;2022-09-27T10:46:32;17.67;70.32
69009;SHT31;56065;52.472;13.380;2022-09-27T10:49:27;18.87;68.32
69009;SHT31;56065;52.472;13.380;2022-09-27T10:51:56;19.72;66.08
69009;SHT31;56065;52.472;13.380;2022-09-27T10:54:34;20.49;65.18
69009;SHT31;56065;52.472;13.380;2022-09-27T10:57:09;20.58;63.53
69009;SHT31;56065;52.472;13.380;2022-09-27T10:59:43;20.17;63.75
69009;SHT31;56065;52.472;13.380;2022-09-27T11:02:31;19.82;63.16
69009;SHT31;56065;52.472;13.380;2022-09-27T11:05:27;19.21;64.88
69009;SHT31;56065;52.472;13.380;2022-09-27T11:07:57;18.55;65.53
69009;SHT31;56065;52.472;13.380;2022-09-27T11:10:32;18.08;66.34
69009;SHT31;56065;52.472;13.380;2022-09-27T11:27:20;17.05;71.42
69009;SHT31;56065;52.472;13.380;2022-09-27T11:33:07;16.85;72.55
69009;SHT31;56065;52.472;13.380;2022-09-27T11:39:16;17.06;72.36
69009;SHT31;56065;52.472;13.380;2022-09-27T11:47:37;15.69;76.75
69009;SHT31;56065;52.472;13.380;2022-09-27T11:55:38;14.38;78.33
69009;SHT31;56065;52.472;13.380;2022-09-27T12:01:05;14.16;78.04
69009;SHT31;56065;52.472;13.380;2022-09-27T12:13:43;14.02;78.68
69009;SHT31;56065;52.472;13.380;2022-09-27T12:16:12;14.02;79.13
69009;SHT31;56065;52.472;13.380;2022-09-27T12:18:40;14.01;79.47
69009;SHT31;56065;52.472;13.380;2022-09-27T12:21:08;14.12;79.44
69009;SHT31;56065;52.472;13.380;2022-09-27T12:23:46;14.37;79.26
69009;SHT31;56065;52.472;13.380;2022-09-27T12:26:30;14.70;79.22
69009;SHT31;56065;52.472;13.380;2022-09-27T12:29:05;15.25;78.55
69009;SHT31;56065;52.472;13.380;2022-09-27T12:34:36;16.04;76.79
69009;SHT31;56065;52.472;13.380;2022-09-27T12:37:15;16.45;76.28
69009;SHT31;56065;52.472;13.380;2022-09-27T12:39:50;16.83;76.21
69009;SHT31;56065;52.472;13.380;2022-09-27T12:42:23;16.89;74.87
69009;SHT31;56065;52.472;13.380;2022-09-27T12:44:49;17.16;74.02
69009;SHT31;56065;52.472;13.380;2022-09-27T12:50:25;16.59;73.77
69009;SHT31;56065;52.472;13.380;2022-09-27T12:52:57;16.79;74.28
69009;SHT31;56065;52.472;13.380;2022-09-27T12:55:38;16.71;73.43
69009;SHT31;56065;52.472;13.380;2022-09-27T13:11:47;16.92;71.99
69009;SHT31;56065;52.472;13.380;2022-09-27T13:14:19;16.83;72.68
69009;SHT31;56065;52.472;13.380;2022-09-27T13:16:46;16.28;73.35
69009;SHT31;56065;52.472;13.380;2022-09-27T13:19:42;16.07;74.00
69009;SHT31;56065;52.472;13.380;2022-09-27T13:22:35;16.11;74.58
69009;SHT31;56065;52.472;13.380;2022-09-27T13:25:00;15.91;74.81
69009;SHT31;56065;52.472;13.380;2022-09-27T13:35:34;16.42;74.68
69009;SHT31;56065;52.472;13.380;2022-09-27T13:38:01;16.55;73.71
69009;SHT31;56065;52.472;13.380;2022-09-27T13:40:38;16.22;73.33
69009;SHT31;56065;52.472;13.380;2022-09-27T13:48:27;15.91;74.52
69009;SHT31;56065;52.472;13.380;2022-09-27T13:53:33;16.03;73.48
69009;SHT31;56065;52.472;13.380;2022-09-27T13:56:00;16.25;73.51
69009;SHT31;56065;52.472;13.380;2022-09-27T13:58:39;16.27;73.63
69009;SHT31;56065;52.472;13.380;2022-09-27T14:04:04;16.07;74.07
69009;SHT31;56065;52.472;13.380;2022-09-27T14:06:32;16.04;74.02
69009;SHT31;56065;52.472;13.380;2022-09-27T14:09:17;15.76;73.77
69009;SHT31;56065;52.472;13.380;2022-09-27T14:11:49;15.90;74.28
69009;SHT31;56065;52.472;13.380;2022-09-27T14:14:19;15.89;74.21
69009;SHT31;56065;52.472;13.380;2022-09-27T14:16:46;15.80;74.27
69009;SHT31;56065;52.472;13.380;2022-09-27T14:19:22;16.00;74.23
69009;SHT31;56065;52.472;13.380;2022-09-27T14:24:54;15.80;74.68
69009;SHT31;56065;52.472;13.380;2022-09-27T14:27:34;15.96;76.13
69009;SHT31;56065;52.472;13.380;2022-09-27T14:30:15;16.48;74.43
69009;SHT31;56065;52.472;13.380;2022-09-27T14:32:49;16.58;74.15
69009;SHT31;56065;52.472;13.380;2022-09-27T14:38:00;16.95;72.34
69009;SHT31;56065;52.472;13.380;2022-09-27T14:40:27;16.79;72.65
69009;SHT31;56065;52.472;13.380;2022-09-27T14:42:58;16.83;71.41
69009;SHT31;56065;52.472;13.380;2022-09-27T14:48:00;16.72;70.79
69009;SHT31;56065;52.472;13.380;2022-09-27T14:50:29;16.05;71.64
69009;SHT31;56065;52.472;13.380;2022-09-27T14:52:58;16.22;71.87
69009;SHT31;56065;52.472;13.380;2022-09-27T14:55:27;16.18;72.49
69009;SHT31;56065;52.472;13.380;2022-09-27T14:58:01;15.97;72.62
69009;SHT31;56065;52.472;13.380;2022-09-27T15:00:32;15.84;73.17
69009;SHT31;56065;52.472;13.380;2022-09-27T15:03:03;15.47;73.06
69009;SHT31;56065;52.472;13.380;2022-09-27T15:05:31;15.19;74.18
69009;SHT31;56065;52.472;13.380;2022-09-27T15:07:59;15.38;74.11
69009;SHT31;56065;52.472;13.380;2022-09-27T15:10:28;15.32;74.04
69009;SHT31;56065;52.472;13.380;2022-09-27T15:12:55;15.39;74.20
69009;SHT31;56065;52.472;13.380;2022-09-27T15:15:28;15.25;73.72
69009;SHT31;56065;52.472;13.380;2022-09-27T15:18:01;15.31;74.21
69009;SHT31;56065;52.472;13.380;2022-09-27T15:20:29;15.34;74.67
69009;SHT31;56065;52.472;13.380;2022-09-27T15:22:56;15.31;74.88
69009;SHT31;56065;52.472;13.380;2022-09-27T15:27:54;15.28;74.72
69009;SHT31;56065;52.472;13.380;2022-09-27T15:30:26;15.16;74.83
69009;SHT31;56065;52.472;13.380;2022-09-27T15:32:54;15.22;74.88
69009;SHT31;56065;52.472;13.380;2022-09-27T15:35:31;15.04;74.94
69009;SHT31;56065;52.472;13.380;2022-09-27T15:43:30;14.56;76.76
69009;SHT31;56065;52.472;13.380;2022-09-27T15:51:42;14.70;76.93
69009;SHT31;56065;52.472;13.380;2022-09-27T15:54:07;14.60;77.68
69009;SHT31;56065;52.472;13.380;2022-09-27T15:56:32;14.63;77.77
69009;SHT31;56065;52.472;13.380;2022-09-27T15:58:59;14.64;78.12
69009;SHT31;56065;52.472;13.380;2022-09-27T16:01:24;14.63;78.32
69009;SHT31;56065;52.472;13.380;2022-09-27T16:03:50;14.50;78.71
69009;SHT31;56065;52.472;13.380;2022-09-27T16:06:15;14.50;78.70
69009;SHT31;56065;52.472;13.380;2022-09-27T16:08:43;14.32;78.20
69009;SHT31;56065;52.472;13.380;2022-09-27T16:11:12;14.33;78.40
69009;SHT31;56065;52.472;13.380;2022-09-27T16:13:38;14.19;77.50
69009;SHT31;56065;52.472;13.380;2022-09-27T16:16:04;14.24;77.72
69009;SHT31;56065;52.472;13.380;2022-09-27T16:18:29;14.20;76.89
69009;SHT31;56065;52.472;13.380;2022-09-27T16:20:58;14.16;76.82
69009;SHT31;56065;52.472;13.380;2022-09-27T16:23:23;14.09;76.71
69009;SHT31;56065;52.472;13.380;2022-09-27T16:25:51;14.12;76.92
69009;SHT31;56065;52.472;13.380;2022-09-27T16:28:16;14.10;76.90
69009;SHT31;56065;52.472;13.380;2022-09-27T16:30:42;14.05;76.57
69009;SHT31;56065;52.472;13.380;2022-09-27T16:33:08;13.93;77.45
69009;SHT31;56065;52.472;13.380;2022-09-27T16:35:33;13.93;77.66
69009;SHT31;56065;52.472;13.380;2022-09-27T16:37:59;13.86;76.92
69009;SHT31;56065;52.472;13.380;2022-09-27T16:40:24;13.69;77.14
69009;SHT31;56065;52.472;13.380;2022-09-27T16:42:52;13.61;77.11
69009;SHT31;56065;52.472;13.380;2022-09-27T16:45:17;13.43;77.80
69009;SHT31;56065;52.472;13.380;2022-09-27T16:47:43;13.35;78.02
69009;SHT31;56065;52.472;13.380;2022-09-27T16:50:11;13.38;78.16
69009;SHT31;56065;52.472;13.380;2022-09-27T16:52:55;13.37;78.93
69009;SHT31;56065;52.472;13.380;2022-09-27T16:55:21;13.37;78.44
69009;SHT31;56065;52.472;13.380;2022-09-27T16:57:47;13.33;79.39
69009;SHT31;56065;52.472;13.380;2022-09-27T17:00:14;13.25;78.44
69009;SHT31;56065;52.472;13.380;2022-09-27T17:02:39;13.20;79.26
69009;SHT31;56065;52.472;13.380;2022-09-27T17:05:05;13.11;79.09
69009;SHT31;56065;52.472;13.380;2022-09-27T17:07:31;13.03;79.19
69009;SHT31;56065;52.472;13.380;2022-09-27T17:09:56;12.94;79.25
69009;SHT31;56065;52.472;13.380;2022-09-27T17:12:22;12.93;79.43
69009;SHT31;56065;52.472;13.380;2022-09-27T17:14:48;12.86;79.94
69009;SHT31;56065;52.472;13.380;2022-09-27T17:17:14;12.83;79.63
69009;SHT31;56065;52.472;13.380;2022-09-27T17:19:39;12.80;79.97
69009;SHT31;56065;52.472;13.380;2022-09-27T17:22:07;12.76;79.75
69009;SHT31;56065;52.472;13.380;2022-09-27T17:24:34;12.72;79.63
69009;SHT31;56065;52.472;13.380;2022-09-27T17:26:59;12.67;79.91
69009;SHT31;56065;52.472;13.380;2022-09-27T17:29:25;12.67;79.91
69009;SHT31;56065;52.472;13.380;2022-09-27T17:31:50;12.65;80.04
69009;SHT31;56065;52.472;13.380;2022-09-27T17:34:16;12.63;80.07
69009;SHT31;56065;52.472;13.380;2022-09-27T17:36:43;12.56;80.04
69009;SHT31;56065;52.472;13.380;2022-09-27T17:39:13;12.57;79.89
69009;SHT31;56065;52.472;13.380;2022-09-27T17:41:39;12.53;79.87
69009;SHT31;56065;52.472;13.380;2022-09-27T17:44:04;12.46;80.17
69009;SHT31;56065;52.472;13.380;2022-09-27T17:46:32;12.38;80.71
69009;SHT31;56065;52.472;13.380;2022-09-27T17:48:58;12.36;80.56
69009;SHT31;56065;52.472;13.380;2022-09-27T17:51:46;12.35;80.89
69009;SHT31;56065;52.472;13.380;2022-09-27T17:54:12;12.32;80.70
69009;SHT31;56065;52.472;13.380;2022-09-27T17:56:38;12.32;80.63
69009;SHT31;56065;52.472;13.380;2022-09-27T17:59:05;12.35;80.74
69009;SHT31;56065;52.472;13.380;2022-09-27T18:01:31;12.32;81.21
69009;SHT31;56065;52.472;13.380;2022-09-27T18:03:58;12.39;80.71
69009;SHT31;56065;52.472;13.380;2022-09-27T18:06:24;12.41;80.92
69009;SHT31;56065;52.472;13.380;2022-09-27T18:08:51;12.41;80.89
69009;SHT31;56065;52.472;13.380;2022-09-27T18:11:19;12.45;81.20
69009;SHT31;56065;52.472;13.380;2022-09-27T18:13:54;12.49;81.51
69009;SHT31;56065;52.472;13.380;2022-09-27T18:16:21;12.57;80.75
69009;SHT31;56065;52.472;13.380;2022-09-27T18:18:54;12.62;80.77
69009;SHT31;56065;52.472;13.380;2022-09-27T18:21:20;12.66;80.88
69009;SHT31;56065;52.472;13.380;2022-09-27T18:23:48;12.69;80.38
69009;SHT31;56065;52.472;13.380;2022-09-27T18:26:15;12.70;80.29
69009;SHT31;56065;52.472;13.380;2022-09-27T18:28:41;12.56;80.16
69009;SHT31;56065;52.472;13.380;2022-09-27T18:31:09;12.55;80.18
69009;SHT31;56065;52.472;13.380;2022-09-27T18:33:35;12.53;80.42
69009;SHT31;56065;52.472;13.380;2022-09-27T18:36:16;12.39;80.12